sensor_id;sensor_type;location;lat;lon;timestamp;P1;durP1;ratioP1;P2;durP2;ratioP2
57093;SDS011;42970;50.996;3.706;2022-08-25T00:01:10;6.97;;;5.60;;
57093;SDS011;42970;50.996;3.706;2022-08-25T00:03:57;7.15;;;5.18;;
57093;SDS011;42970;50.996;3.706;2022-08-25T00:06:24;8.82;;;5.43;;
57093;SDS011;42970;50.996;3.706;2022-08-25T00:08:50;11.23;;;5.57;;
57093;SDS011;42970;50.996;3.706;2022-08-25T00:11:17;7.88;;;5.60;;
57093;SDS011;42970;50.996;3.706;2022-08-25T00:13:47;9.40;;;6.40;;
57093;SDS011;42970;50.996;3.706;2022-08-25T00:16:16;9.63;;;5.82;;
57093;SDS011;42970;50.996;3.706;2022-08-25T00:18:43;8.85;;;6.28;;
57093;SDS011;42970;50.996;3.706;2022-08-25T00:21:12;10.48;;;5.90;;
57093;SDS011;42970;50.996;3.706;2022-08-25T00:23:40;8.60;;;5.40;;
57093;SDS011;42970;50.996;3.706;2022-08-25T00:26:06;12.15;;;6.10;;
57093;SDS011;42970;50.996;3.706;2022-08-25T00:28:33;12.27;;;5.43;;
57093;SDS011;42970;50.996;3.706;2022-08-25T00:30:59;14.55;;;6.25;;
57093;SDS011;42970;50.996;3.706;2022-08-25T00:33:26;9.10;;;6.50;;
57093;SDS011;42970;50.996;3.706;2022-08-25T00:35:52;12.20;;;6.38;;
57093;SDS011;42970;50.996;3.706;2022-08-25T00:38:18;13.75;;;6.50;;
57093;SDS011;42970;50.996;3.706;2022-08-25T00:40:44;10.55;;;6.47;;
57093;SDS011;42970;50.996;3.706;2022-08-25T00:43:11;10.60;;;6.88;;
57093;SDS011;42970;50.996;3.706;2022-08-25T00:45:37;11.02;;;6.70;;
57093;SDS011;42970;50.996;3.706;2022-08-25T00:48:03;10.43;;;6.50;;
57093;SDS011;42970;50.996;3.706;2022-08-25T00:50:29;14.27;;;7.10;;
57093;SDS011;42970;50.996;3.706;2022-08-25T00:52:58;9.20;;;6.85;;
57093;SDS011;42970;50.996;3.706;2022-08-25T00:55:33;10.02;;;6.80;;
57093;SDS011;42970;50.996;3.706;2022-08-25T00:58:09;10.13;;;6.85;;
57093;SDS011;42970;50.996;3.706;2022-08-25T01:00:40;15.20;;;7.38;;
57093;SDS011;42970;50.996;3.706;2022-08-25T01:03:09;13.93;;;7.00;;
57093;SDS011;42970;50.996;3.706;2022-08-25T01:05:35;10.07;;;6.68;;
57093;SDS011;42970;50.996;3.706;2022-08-25T01:08:02;8.90;;;7.30;;
57093;SDS011;42970;50.996;3.706;2022-08-25T01:10:30;10.50;;;7.28;;
57093;SDS011;42970;50.996;3.706;2022-08-25T01:13:02;8.05;;;7.20;;
57093;SDS011;42970;50.996;3.706;2022-08-25T01:15:33;16.95;;;7.65;;
57093;SDS011;42970;50.996;3.706;2022-08-25T01:17:59;10.13;;;7.13;;
57093;SDS011;42970;50.996;3.706;2022-08-25T01:20:26;11.27;;;7.97;;
57093;SDS011;42970;50.996;3.706;2022-08-25T01:22:55;10.63;;;7.30;;
57093;SDS011;42970;50.996;3.706;2022-08-25T01:27:59;12.25;;;7.60;;
57093;SDS011;42970;50.996;3.706;2022-08-25T01:30:24;14.15;;;7.35;;
57093;SDS011;42970;50.996;3.706;2022-08-25T01:32:50;8.60;;;6.80;;
57093;SDS011;42970;50.996;3.706;2022-08-25T01:35:15;9.13;;;7.50;;
57093;SDS011;42970;50.996;3.706;2022-08-25T01:37:41;11.32;;;7.05;;
57093;SDS011;42970;50.996;3.706;2022-08-25T01:40:07;10.38;;;7.22;;
57093;SDS011;42970;50.996;3.706;2022-08-25T01:45:17;31.67;;;8.75;;
57093;SDS011;42970;50.996;3.706;2022-08-25T01:47:43;11.07;;;7.88;;
57093;SDS011;42970;50.996;3.706;2022-08-25T01:50:09;16.88;;;7.28;;
57093;SDS011;42970;50.996;3.706;2022-08-25T01:52:45;10.20;;;7.88;;
57093;SDS011;42970;50.996;3.706;2022-08-25T01:55:18;13.27;;;7.95;;
57093;SDS011;42970;50.996;3.706;2022-08-25T01:57:43;8.57;;;7.35;;
57093;SDS011;42970;50.996;3.706;2022-08-25T02:00:09;9.00;;;6.95;;
57093;SDS011;42970;50.996;3.706;2022-08-25T02:02:38;10.75;;;7.80;;
57093;SDS011;42970;50.996;3.706;2022-08-25T02:05:05;12.23;;;7.55;;
57093;SDS011;42970;50.996;3.706;2022-08-25T02:07:30;11.63;;;7.93;;
57093;SDS011;42970;50.996;3.706;2022-08-25T02:09:56;10.85;;;7.80;;
57093;SDS011;42970;50.996;3.706;2022-08-25T02:12:22;12.63;;;8.55;;
57093;SDS011;42970;50.996;3.706;2022-08-25T02:14:49;10.48;;;8.80;;
57093;SDS011;42970;50.996;3.706;2022-08-25T02:17:15;11.63;;;8.00;;
57093;SDS011;42970;50.996;3.706;2022-08-25T02:19:41;10.77;;;7.25;;
57093;SDS011;42970;50.996;3.706;2022-08-25T02:22:06;10.13;;;7.93;;
57093;SDS011;42970;50.996;3.706;2022-08-25T02:24:32;12.55;;;7.82;;
57093;SDS011;42970;50.996;3.706;2022-08-25T02:26:59;11.35;;;8.38;;
57093;SDS011;42970;50.996;3.706;2022-08-25T02:29:25;12.10;;;7.68;;
57093;SDS011;42970;50.996;3.706;2022-08-25T02:31:51;11.98;;;7.10;;
57093;SDS011;42970;50.996;3.706;2022-08-25T02:34:17;10.45;;;7.43;;
57093;SDS011;42970;50.996;3.706;2022-08-25T02:36:43;8.85;;;7.47;;
57093;SDS011;42970;50.996;3.706;2022-08-25T02:39:08;10.30;;;7.88;;
57093;SDS011;42970;50.996;3.706;2022-08-25T02:41:34;10.32;;;7.75;;
57093;SDS011;42970;50.996;3.706;2022-08-25T02:44:00;11.57;;;8.48;;
57093;SDS011;42970;50.996;3.706;2022-08-25T02:46:27;16.13;;;8.35;;
57093;SDS011;42970;50.996;3.706;2022-08-25T02:48:53;12.05;;;8.57;;
57093;SDS011;42970;50.996;3.706;2022-08-25T02:51:20;12.20;;;8.05;;
57093;SDS011;42970;50.996;3.706;2022-08-25T02:53:46;12.75;;;9.05;;
57093;SDS011;42970;50.996;3.706;2022-08-25T02:56:12;14.07;;;9.75;;
57093;SDS011;42970;50.996;3.706;2022-08-25T02:58:39;15.25;;;9.95;;
57093;SDS011;42970;50.996;3.706;2022-08-25T03:01:06;12.82;;;9.60;;
57093;SDS011;42970;50.996;3.706;2022-08-25T03:03:33;16.88;;;9.50;;
57093;SDS011;42970;50.996;3.706;2022-08-25T03:05:59;16.35;;;10.25;;
57093;SDS011;42970;50.996;3.706;2022-08-25T03:08:26;14.98;;;9.50;;
57093;SDS011;42970;50.996;3.706;2022-08-25T03:10:51;17.15;;;10.55;;
57093;SDS011;42970;50.996;3.706;2022-08-25T03:13:17;11.80;;;9.40;;
57093;SDS011;42970;50.996;3.706;2022-08-25T03:15:43;12.90;;;10.25;;
57093;SDS011;42970;50.996;3.706;2022-08-25T03:18:09;15.48;;;10.63;;
57093;SDS011;42970;50.996;3.706;2022-08-25T03:20:36;12.88;;;9.98;;
57093;SDS011;42970;50.996;3.706;2022-08-25T03:23:03;15.35;;;10.88;;
57093;SDS011;42970;50.996;3.706;2022-08-25T03:25:29;16.17;;;9.95;;
57093;SDS011;42970;50.996;3.706;2022-08-25T03:28:13;15.73;;;11.67;;
57093;SDS011;42970;50.996;3.706;2022-08-25T03:30:39;16.02;;;12.15;;
57093;SDS011;42970;50.996;3.706;2022-08-25T03:33:06;19.67;;;11.60;;
57093;SDS011;42970;50.996;3.706;2022-08-25T03:35:32;19.95;;;11.57;;
57093;SDS011;42970;50.996;3.706;2022-08-25T03:37:58;15.25;;;10.98;;
57093;SDS011;42970;50.996;3.706;2022-08-25T03:40:23;17.90;;;12.15;;
57093;SDS011;42970;50.996;3.706;2022-08-25T03:42:49;22.95;;;11.63;;
57093;SDS011;42970;50.996;3.706;2022-08-25T03:45:16;22.33;;;12.27;;
57093;SDS011;42970;50.996;3.706;2022-08-25T03:47:44;17.55;;;12.35;;
57093;SDS011;42970;50.996;3.706;2022-08-25T03:50:10;16.42;;;12.77;;
57093;SDS011;42970;50.996;3.706;2022-08-25T03:52:36;17.08;;;12.95;;
57093;SDS011;42970;50.996;3.706;2022-08-25T03:55:04;17.90;;;11.85;;
57093;SDS011;42970;50.996;3.706;2022-08-25T03:57:31;17.02;;;12.50;;
57093;SDS011;42970;50.996;3.706;2022-08-25T03:59:57;21.80;;;13.32;;
57093;SDS011;42970;50.996;3.706;2022-08-25T04:02:22;20.75;;;13.38;;
57093;SDS011;42970;50.996;3.706;2022-08-25T04:04:49;21.15;;;14.10;;
57093;SDS011;42970;50.996;3.706;2022-08-25T04:07:14;21.05;;;13.60;;
57093;SDS011;42970;50.996;3.706;2022-08-25T04:09:40;20.83;;;13.73;;
57093;SDS011;42970;50.996;3.706;2022-08-25T04:12:05;20.30;;;14.77;;
57093;SDS011;42970;50.996;3.706;2022-08-25T04:14:31;21.05;;;15.80;;
57093;SDS011;42970;50.996;3.706;2022-08-25T04:16:56;24.48;;;15.18;;
57093;SDS011;42970;50.996;3.706;2022-08-25T04:19:22;19.98;;;14.25;;
57093;SDS011;42970;50.996;3.706;2022-08-25T04:21:47;24.10;;;14.02;;
57093;SDS011;42970;50.996;3.706;2022-08-25T04:24:13;20.73;;;13.43;;
57093;SDS011;42970;50.996;3.706;2022-08-25T04:26:42;26.58;;;14.43;;
57093;SDS011;42970;50.996;3.706;2022-08-25T04:29:12;23.60;;;13.27;;
57093;SDS011;42970;50.996;3.706;2022-08-25T04:31:40;19.30;;;13.48;;
57093;SDS011;42970;50.996;3.706;2022-08-25T04:34:08;22.40;;;13.63;;
57093;SDS011;42970;50.996;3.706;2022-08-25T04:36:34;22.38;;;12.15;;
57093;SDS011;42970;50.996;3.706;2022-08-25T04:38:59;30.27;;;12.93;;
57093;SDS011;42970;50.996;3.706;2022-08-25T04:41:25;26.40;;;13.57;;
57093;SDS011;42970;50.996;3.706;2022-08-25T04:43:54;27.60;;;13.55;;
57093;SDS011;42970;50.996;3.706;2022-08-25T04:46:23;23.10;;;13.10;;
57093;SDS011;42970;50.996;3.706;2022-08-25T04:48:50;21.48;;;12.48;;
57093;SDS011;42970;50.996;3.706;2022-08-25T04:51:18;33.03;;;14.27;;
57093;SDS011;42970;50.996;3.706;2022-08-25T04:53:47;39.55;;;13.02;;
57093;SDS011;42970;50.996;3.706;2022-08-25T04:56:13;21.85;;;12.23;;
57093;SDS011;42970;50.996;3.706;2022-08-25T04:58:40;19.25;;;13.23;;
57093;SDS011;42970;50.996;3.706;2022-08-25T05:01:08;24.25;;;14.07;;
57093;SDS011;42970;50.996;3.706;2022-08-25T05:03:35;22.58;;;15.55;;
57093;SDS011;42970;50.996;3.706;2022-08-25T05:06:02;24.38;;;14.80;;
57093;SDS011;42970;50.996;3.706;2022-08-25T05:08:29;21.23;;;15.30;;
57093;SDS011;42970;50.996;3.706;2022-08-25T05:10:55;21.52;;;15.48;;
57093;SDS011;42970;50.996;3.706;2022-08-25T05:13:21;21.13;;;15.02;;
57093;SDS011;42970;50.996;3.706;2022-08-25T05:15:54;19.05;;;13.52;;
57093;SDS011;42970;50.996;3.706;2022-08-25T05:18:22;29.65;;;15.82;;
57093;SDS011;42970;50.996;3.706;2022-08-25T05:20:50;21.83;;;15.43;;
57093;SDS011;42970;50.996;3.706;2022-08-25T05:23:18;18.30;;;13.27;;
57093;SDS011;42970;50.996;3.706;2022-08-25T05:25:44;18.45;;;12.77;;
57093;SDS011;42970;50.996;3.706;2022-08-25T05:28:10;23.55;;;13.55;;
57093;SDS011;42970;50.996;3.706;2022-08-25T05:30:39;22.25;;;14.30;;
57093;SDS011;42970;50.996;3.706;2022-08-25T05:33:06;19.10;;;14.52;;
57093;SDS011;42970;50.996;3.706;2022-08-25T05:35:32;21.42;;;14.00;;
57093;SDS011;42970;50.996;3.706;2022-08-25T05:37:57;21.50;;;15.00;;
57093;SDS011;42970;50.996;3.706;2022-08-25T05:40:23;18.65;;;13.50;;
57093;SDS011;42970;50.996;3.706;2022-08-25T05:42:49;20.27;;;13.25;;
57093;SDS011;42970;50.996;3.706;2022-08-25T05:45:15;18.25;;;13.13;;
57093;SDS011;42970;50.996;3.706;2022-08-25T05:47:41;20.30;;;14.57;;
57093;SDS011;42970;50.996;3.706;2022-08-25T05:50:07;19.13;;;13.75;;
57093;SDS011;42970;50.996;3.706;2022-08-25T05:52:33;23.52;;;15.80;;
57093;SDS011;42970;50.996;3.706;2022-08-25T05:54:59;28.90;;;14.95;;
57093;SDS011;42970;50.996;3.706;2022-08-25T05:57:24;25.02;;;14.55;;
57093;SDS011;42970;50.996;3.706;2022-08-25T05:59:50;21.70;;;13.85;;
57093;SDS011;42970;50.996;3.706;2022-08-25T06:02:15;20.05;;;14.13;;
57093;SDS011;42970;50.996;3.706;2022-08-25T06:05:00;20.88;;;13.95;;
57093;SDS011;42970;50.996;3.706;2022-08-25T06:07:26;20.42;;;13.05;;
57093;SDS011;42970;50.996;3.706;2022-08-25T06:09:51;22.65;;;12.98;;
57093;SDS011;42970;50.996;3.706;2022-08-25T06:12:17;19.25;;;12.68;;
57093;SDS011;42970;50.996;3.706;2022-08-25T06:14:45;19.55;;;12.65;;
57093;SDS011;42970;50.996;3.706;2022-08-25T06:17:10;17.98;;;12.70;;
57093;SDS011;42970;50.996;3.706;2022-08-25T06:19:35;20.85;;;12.30;;
57093;SDS011;42970;50.996;3.706;2022-08-25T06:22:10;17.23;;;11.15;;
57093;SDS011;42970;50.996;3.706;2022-08-25T06:24:53;15.50;;;10.77;;
57093;SDS011;42970;50.996;3.706;2022-08-25T06:27:19;16.30;;;10.98;;
57093;SDS011;42970;50.996;3.706;2022-08-25T06:29:44;15.93;;;10.05;;
57093;SDS011;42970;50.996;3.706;2022-08-25T06:32:09;18.17;;;9.85;;
57093;SDS011;42970;50.996;3.706;2022-08-25T06:34:35;16.55;;;10.63;;
57093;SDS011;42970;50.996;3.706;2022-08-25T06:37:00;13.48;;;9.93;;
57093;SDS011;42970;50.996;3.706;2022-08-25T06:39:26;14.27;;;9.35;;
57093;SDS011;42970;50.996;3.706;2022-08-25T06:41:54;12.73;;;8.25;;
57093;SDS011;42970;50.996;3.706;2022-08-25T06:44:21;14.15;;;9.05;;
57093;SDS011;42970;50.996;3.706;2022-08-25T06:46:47;12.73;;;8.95;;
57093;SDS011;42970;50.996;3.706;2022-08-25T06:49:13;15.05;;;10.00;;
57093;SDS011;42970;50.996;3.706;2022-08-25T06:51:39;13.88;;;8.90;;
57093;SDS011;42970;50.996;3.706;2022-08-25T06:54:06;13.70;;;9.40;;
57093;SDS011;42970;50.996;3.706;2022-08-25T06:56:34;14.43;;;8.45;;
57093;SDS011;42970;50.996;3.706;2022-08-25T06:59:04;14.48;;;8.18;;
57093;SDS011;42970;50.996;3.706;2022-08-25T07:01:33;14.63;;;8.52;;
57093;SDS011;42970;50.996;3.706;2022-08-25T07:03:59;13.68;;;9.18;;
57093;SDS011;42970;50.996;3.706;2022-08-25T07:06:27;14.55;;;7.00;;
57093;SDS011;42970;50.996;3.706;2022-08-25T07:08:55;10.50;;;6.88;;
57093;SDS011;42970;50.996;3.706;2022-08-25T07:11:21;12.05;;;6.60;;
57093;SDS011;42970;50.996;3.706;2022-08-25T07:13:47;9.07;;;6.70;;
57093;SDS011;42970;50.996;3.706;2022-08-25T07:16:14;17.05;;;7.47;;
57093;SDS011;42970;50.996;3.706;2022-08-25T07:18:40;17.85;;;6.53;;
57093;SDS011;42970;50.996;3.706;2022-08-25T07:21:06;13.55;;;6.47;;
57093;SDS011;42970;50.996;3.706;2022-08-25T07:23:31;8.20;;;5.88;;
57093;SDS011;42970;50.996;3.706;2022-08-25T07:26:06;11.85;;;5.93;;
57093;SDS011;42970;50.996;3.706;2022-08-25T07:28:42;10.07;;;5.68;;
57093;SDS011;42970;50.996;3.706;2022-08-25T07:31:08;15.88;;;6.30;;
57093;SDS011;42970;50.996;3.706;2022-08-25T07:33:33;7.75;;;5.10;;
57093;SDS011;42970;50.996;3.706;2022-08-25T07:35:59;8.68;;;5.00;;
57093;SDS011;42970;50.996;3.706;2022-08-25T07:38:25;17.17;;;4.80;;
57093;SDS011;42970;50.996;3.706;2022-08-25T07:40:50;7.20;;;4.13;;
57093;SDS011;42970;50.996;3.706;2022-08-25T07:43:20;9.63;;;4.47;;
57093;SDS011;42970;50.996;3.706;2022-08-25T07:45:46;11.50;;;4.57;;
57093;SDS011;42970;50.996;3.706;2022-08-25T07:48:12;8.57;;;4.05;;
57093;SDS011;42970;50.996;3.706;2022-08-25T07:50:40;10.13;;;4.03;;
57093;SDS011;42970;50.996;3.706;2022-08-25T07:53:08;11.38;;;4.03;;
57093;SDS011;42970;50.996;3.706;2022-08-25T07:55:34;8.15;;;3.88;;
57093;SDS011;42970;50.996;3.706;2022-08-25T07:58:00;10.23;;;3.90;;
57093;SDS011;42970;50.996;3.706;2022-08-25T08:00:27;6.60;;;3.78;;
57093;SDS011;42970;50.996;3.706;2022-08-25T08:02:54;10.82;;;3.95;;
57093;SDS011;42970;50.996;3.706;2022-08-25T08:05:21;6.15;;;3.42;;
57093;SDS011;42970;50.996;3.706;2022-08-25T08:07:47;8.60;;;3.40;;
57093;SDS011;42970;50.996;3.706;2022-08-25T08:10:13;11.13;;;3.35;;
57093;SDS011;42970;50.996;3.706;2022-08-25T08:12:39;4.45;;;3.42;;
57093;SDS011;42970;50.996;3.706;2022-08-25T08:15:06;9.57;;;3.17;;
57093;SDS011;42970;50.996;3.706;2022-08-25T08:17:32;7.18;;;3.03;;
57093;SDS011;42970;50.996;3.706;2022-08-25T08:19:58;6.88;;;2.67;;
57093;SDS011;42970;50.996;3.706;2022-08-25T08:22:24;6.15;;;2.95;;
57093;SDS011;42970;50.996;3.706;2022-08-25T08:24:49;6.05;;;3.10;;
57093;SDS011;42970;50.996;3.706;2022-08-25T08:27:14;8.57;;;3.20;;
57093;SDS011;42970;50.996;3.706;2022-08-25T08:29:40;8.68;;;3.10;;
57093;SDS011;42970;50.996;3.706;2022-08-25T08:32:12;2.92;;;2.63;;
57093;SDS011;42970;50.996;3.706;2022-08-25T08:34:41;5.35;;;2.80;;
57093;SDS011;42970;50.996;3.706;2022-08-25T08:37:07;17.55;;;3.35;;
57093;SDS011;42970;50.996;3.706;2022-08-25T08:39:33;4.88;;;3.47;;
57093;SDS011;42970;50.996;3.706;2022-08-25T08:55:02;18.33;;;2.75;;
57093;SDS011;42970;50.996;3.706;2022-08-25T08:57:31;4.88;;;2.70;;
57093;SDS011;42970;50.996;3.706;2022-08-25T09:00:05;15.50;;;3.28;;
57093;SDS011;42970;50.996;3.706;2022-08-25T09:02:34;4.70;;;2.75;;
57093;SDS011;42970;50.996;3.706;2022-08-25T09:05:07;6.45;;;2.40;;
57093;SDS011;42970;50.996;3.706;2022-08-25T09:07:43;5.72;;;2.33;;
57093;SDS011;42970;50.996;3.706;2022-08-25T09:10:17;10.00;;;2.78;;
57093;SDS011;42970;50.996;3.706;2022-08-25T09:12:53;7.88;;;2.30;;
57093;SDS011;42970;50.996;3.706;2022-08-25T09:15:35;10.18;;;2.42;;
57093;SDS011;42970;50.996;3.706;2022-08-25T09:21:40;8.60;;;2.78;;
57093;SDS011;42970;50.996;3.706;2022-08-25T09:32:44;3.90;;;2.38;;
57093;SDS011;42970;50.996;3.706;2022-08-25T09:35:14;8.32;;;2.40;;
57093;SDS011;42970;50.996;3.706;2022-08-25T09:37:57;7.63;;;1.98;;
57093;SDS011;42970;50.996;3.706;2022-08-25T09:40:28;8.25;;;3.20;;
57093;SDS011;42970;50.996;3.706;2022-08-25T09:42:57;3.65;;;2.15;;
57093;SDS011;42970;50.996;3.706;2022-08-25T09:45:33;7.60;;;2.67;;
57093;SDS011;42970;50.996;3.706;2022-08-25T09:48:22;9.55;;;2.08;;
57093;SDS011;42970;50.996;3.706;2022-08-25T09:50:53;10.90;;;2.17;;
57093;SDS011;42970;50.996;3.706;2022-08-25T09:53:24;2.17;;;1.80;;
57093;SDS011;42970;50.996;3.706;2022-08-25T09:55:58;2.88;;;1.83;;
57093;SDS011;42970;50.996;3.706;2022-08-25T09:58:29;4.47;;;2.00;;
57093;SDS011;42970;50.996;3.706;2022-08-25T10:03:29;10.30;;;2.05;;
57093;SDS011;42970;50.996;3.706;2022-08-25T10:11:08;5.30;;;2.03;;
57093;SDS011;42970;50.996;3.706;2022-08-25T10:13:42;4.65;;;2.28;;
57093;SDS011;42970;50.996;3.706;2022-08-25T10:18:48;3.92;;;2.03;;
57093;SDS011;42970;50.996;3.706;2022-08-25T10:21:31;4.10;;;1.70;;
57093;SDS011;42970;50.996;3.706;2022-08-25T10:23:57;6.57;;;2.20;;
57093;SDS011;42970;50.996;3.706;2022-08-25T10:27:15;4.78;;;1.63;;
57093;SDS011;42970;50.996;3.706;2022-08-25T10:34:55;7.30;;;2.00;;
57093;SDS011;42970;50.996;3.706;2022-08-25T10:39:58;10.00;;;1.95;;
57093;SDS011;42970;50.996;3.706;2022-08-25T10:45:29;4.75;;;1.90;;
57093;SDS011;42970;50.996;3.706;2022-08-25T10:50:43;4.35;;;2.08;;
57093;SDS011;42970;50.996;3.706;2022-08-25T10:56:36;6.65;;;1.80;;
57093;SDS011;42970;50.996;3.706;2022-08-25T11:04:14;7.72;;;2.00;;
57093;SDS011;42970;50.996;3.706;2022-08-25T11:07:09;7.28;;;2.67;;
57093;SDS011;42970;50.996;3.706;2022-08-25T11:09:41;6.40;;;2.70;;
57093;SDS011;42970;50.996;3.706;2022-08-25T11:12:21;7.93;;;2.90;;
57093;SDS011;42970;50.996;3.706;2022-08-25T11:17:51;8.23;;;3.20;;
57093;SDS011;42970;50.996;3.706;2022-08-25T11:20:20;7.72;;;3.22;;
57093;SDS011;42970;50.996;3.706;2022-08-25T11:25:53;9.75;;;3.13;;
57093;SDS011;42970;50.996;3.706;2022-08-25T11:31:15;10.85;;;3.17;;
57093;SDS011;42970;50.996;3.706;2022-08-25T11:33:42;6.50;;;3.40;;
57093;SDS011;42970;50.996;3.706;2022-08-25T11:44:44;8.05;;;3.72;;
57093;SDS011;42970;50.996;3.706;2022-08-25T11:53:02;8.07;;;3.53;;
57093;SDS011;42970;50.996;3.706;2022-08-25T11:58:40;9.65;;;3.95;;
57093;SDS011;42970;50.996;3.706;2022-08-25T12:09:30;14.65;;;4.57;;
57093;SDS011;42970;50.996;3.706;2022-08-25T12:14:57;9.18;;;4.78;;
57093;SDS011;42970;50.996;3.706;2022-08-25T12:25:52;10.38;;;6.72;;
57093;SDS011;42970;50.996;3.706;2022-08-25T12:28:35;21.65;;;7.38;;
57093;SDS011;42970;50.996;3.706;2022-08-25T12:31:20;12.05;;;7.55;;
57093;SDS011;42970;50.996;3.706;2022-08-25T12:36:38;13.23;;;7.63;;
57093;SDS011;42970;50.996;3.706;2022-08-25T12:39:08;15.25;;;7.45;;
57093;SDS011;42970;50.996;3.706;2022-08-25T12:44:44;24.27;;;7.90;;
57093;SDS011;42970;50.996;3.706;2022-08-25T12:49:43;11.95;;;8.00;;
57093;SDS011;42970;50.996;3.706;2022-08-25T12:52:14;11.73;;;8.00;;
57093;SDS011;42970;50.996;3.706;2022-08-25T12:54:45;16.08;;;8.60;;
57093;SDS011;42970;50.996;3.706;2022-08-25T13:03:03;28.80;;;9.40;;
57093;SDS011;42970;50.996;3.706;2022-08-25T13:08:49;15.93;;;6.60;;
57093;SDS011;42970;50.996;3.706;2022-08-25T13:11:46;13.43;;;7.57;;
57093;SDS011;42970;50.996;3.706;2022-08-25T13:14:18;15.48;;;7.88;;
57093;SDS011;42970;50.996;3.706;2022-08-25T13:17:00;13.48;;;8.27;;
57093;SDS011;42970;50.996;3.706;2022-08-25T13:19:25;13.27;;;9.27;;
57093;SDS011;42970;50.996;3.706;2022-08-25T13:21:52;13.65;;;8.98;;
57093;SDS011;42970;50.996;3.706;2022-08-25T13:24:27;15.18;;;6.78;;
57093;SDS011;42970;50.996;3.706;2022-08-25T13:26:56;13.50;;;6.47;;
57093;SDS011;42970;50.996;3.706;2022-08-25T13:29:26;26.05;;;6.03;;
57093;SDS011;42970;50.996;3.706;2022-08-25T13:32:01;15.60;;;7.57;;
57093;SDS011;42970;50.996;3.706;2022-08-25T13:34:34;8.93;;;6.13;;
57093;SDS011;42970;50.996;3.706;2022-08-25T13:37:05;10.85;;;8.10;;
57093;SDS011;42970;50.996;3.706;2022-08-25T13:40:12;11.48;;;5.85;;
57093;SDS011;42970;50.996;3.706;2022-08-25T13:42:47;11.75;;;5.93;;
57093;SDS011;42970;50.996;3.706;2022-08-25T13:45:19;15.13;;;8.52;;
57093;SDS011;42970;50.996;3.706;2022-08-25T13:47:47;22.17;;;10.77;;
57093;SDS011;42970;50.996;3.706;2022-08-25T13:50:15;16.63;;;10.70;;
57093;SDS011;42970;50.996;3.706;2022-08-25T13:52:49;12.32;;;8.63;;
57093;SDS011;42970;50.996;3.706;2022-08-25T13:55:24;34.70;;;12.93;;
57093;SDS011;42970;50.996;3.706;2022-08-25T13:57:55;22.73;;;12.98;;
57093;SDS011;42970;50.996;3.706;2022-08-25T14:00:42;17.35;;;12.07;;
57093;SDS011;42970;50.996;3.706;2022-08-25T14:03:27;33.63;;;15.77;;
57093;SDS011;42970;50.996;3.706;2022-08-25T14:06:18;23.17;;;16.00;;
57093;SDS011;42970;50.996;3.706;2022-08-25T14:08:44;23.35;;;13.60;;
57093;SDS011;42970;50.996;3.706;2022-08-25T14:11:13;31.20;;;15.50;;
57093;SDS011;42970;50.996;3.706;2022-08-25T14:13:58;24.38;;;14.20;;
57093;SDS011;42970;50.996;3.706;2022-08-25T14:21:48;31.45;;;16.08;;
57093;SDS011;42970;50.996;3.706;2022-08-25T14:24:18;29.45;;;17.58;;
57093;SDS011;42970;50.996;3.706;2022-08-25T14:26:46;37.80;;;19.17;;
57093;SDS011;42970;50.996;3.706;2022-08-25T14:29:11;27.55;;;16.27;;
57093;SDS011;42970;50.996;3.706;2022-08-25T14:31:39;37.70;;;15.35;;
57093;SDS011;42970;50.996;3.706;2022-08-25T14:34:20;46.85;;;16.80;;
57093;SDS011;42970;50.996;3.706;2022-08-25T14:36:49;23.30;;;15.02;;
57093;SDS011;42970;50.996;3.706;2022-08-25T14:39:15;23.98;;;13.82;;
57093;SDS011;42970;50.996;3.706;2022-08-25T14:41:41;24.70;;;11.38;;
57093;SDS011;42970;50.996;3.706;2022-08-25T14:44:09;17.63;;;11.05;;
57093;SDS011;42970;50.996;3.706;2022-08-25T14:46:35;22.20;;;11.18;;
57093;SDS011;42970;50.996;3.706;2022-08-25T14:49:05;14.57;;;8.90;;
57093;SDS011;42970;50.996;3.706;2022-08-25T14:51:33;22.40;;;9.63;;
57093;SDS011;42970;50.996;3.706;2022-08-25T14:54:00;20.80;;;11.20;;
57093;SDS011;42970;50.996;3.706;2022-08-25T14:56:29;20.98;;;9.63;;
57093;SDS011;42970;50.996;3.706;2022-08-25T14:58:54;19.23;;;8.77;;
57093;SDS011;42970;50.996;3.706;2022-08-25T15:01:21;16.83;;;9.93;;
57093;SDS011;42970;50.996;3.706;2022-08-25T15:03:49;26.52;;;9.80;;
57093;SDS011;42970;50.996;3.706;2022-08-25T15:06:17;18.80;;;8.15;;
57093;SDS011;42970;50.996;3.706;2022-08-25T15:08:43;20.92;;;8.40;;
57093;SDS011;42970;50.996;3.706;2022-08-25T15:11:27;16.92;;;7.45;;
57093;SDS011;42970;50.996;3.706;2022-08-25T15:13:54;14.15;;;7.07;;
57093;SDS011;42970;50.996;3.706;2022-08-25T15:16:21;17.50;;;7.30;;
57093;SDS011;42970;50.996;3.706;2022-08-25T15:18:50;9.40;;;5.78;;
57093;SDS011;42970;50.996;3.706;2022-08-25T15:21:16;11.23;;;5.47;;
57093;SDS011;42970;50.996;3.706;2022-08-25T15:23:42;14.32;;;6.97;;
57093;SDS011;42970;50.996;3.706;2022-08-25T15:26:07;16.95;;;6.97;;
57093;SDS011;42970;50.996;3.706;2022-08-25T15:28:36;17.30;;;7.65;;
57093;SDS011;42970;50.996;3.706;2022-08-25T15:31:06;15.52;;;6.97;;
57093;SDS011;42970;50.996;3.706;2022-08-25T15:33:31;14.93;;;6.93;;
57093;SDS011;42970;50.996;3.706;2022-08-25T15:35:56;23.58;;;8.52;;
57093;SDS011;42970;50.996;3.706;2022-08-25T15:38:22;17.88;;;7.93;;
57093;SDS011;42970;50.996;3.706;2022-08-25T15:40:47;29.00;;;8.73;;
57093;SDS011;42970;50.996;3.706;2022-08-25T15:43:14;19.23;;;8.43;;
57093;SDS011;42970;50.996;3.706;2022-08-25T15:45:39;19.98;;;8.52;;
57093;SDS011;42970;50.996;3.706;2022-08-25T15:48:05;16.20;;;7.45;;
57093;SDS011;42970;50.996;3.706;2022-08-25T15:50:30;20.33;;;7.70;;
57093;SDS011;42970;50.996;3.706;2022-08-25T15:52:56;20.83;;;8.82;;
57093;SDS011;42970;50.996;3.706;2022-08-25T15:55:21;20.92;;;8.77;;
57093;SDS011;42970;50.996;3.706;2022-08-25T15:57:47;17.52;;;9.65;;
57093;SDS011;42970;50.996;3.706;2022-08-25T16:00:12;15.00;;;8.10;;
57093;SDS011;42970;50.996;3.706;2022-08-25T16:02:38;14.75;;;8.70;;
57093;SDS011;42970;50.996;3.706;2022-08-25T16:05:05;22.77;;;10.23;;
57093;SDS011;42970;50.996;3.706;2022-08-25T16:07:32;26.80;;;9.35;;
57093;SDS011;42970;50.996;3.706;2022-08-25T16:09:57;17.85;;;9.30;;
57093;SDS011;42970;50.996;3.706;2022-08-25T16:12:23;20.80;;;11.00;;
57093;SDS011;42970;50.996;3.706;2022-08-25T16:14:50;20.75;;;10.98;;
57093;SDS011;42970;50.996;3.706;2022-08-25T16:17:16;24.00;;;11.05;;
57093;SDS011;42970;50.996;3.706;2022-08-25T16:19:43;21.25;;;11.30;;
57093;SDS011;42970;50.996;3.706;2022-08-25T16:22:08;10.98;;;7.10;;
57093;SDS011;42970;50.996;3.706;2022-08-25T16:24:34;21.30;;;11.27;;
57093;SDS011;42970;50.996;3.706;2022-08-25T16:26:59;19.58;;;9.82;;
57093;SDS011;42970;50.996;3.706;2022-08-25T16:29:35;27.98;;;10.25;;
57093;SDS011;42970;50.996;3.706;2022-08-25T16:32:02;21.45;;;9.98;;
57093;SDS011;42970;50.996;3.706;2022-08-25T16:34:29;29.48;;;10.02;;
57093;SDS011;42970;50.996;3.706;2022-08-25T16:36:55;17.50;;;8.82;;
57093;SDS011;42970;50.996;3.706;2022-08-25T16:39:21;15.88;;;6.80;;
57093;SDS011;42970;50.996;3.706;2022-08-25T16:41:47;18.88;;;8.02;;
57093;SDS011;42970;50.996;3.706;2022-08-25T16:44:14;17.02;;;6.70;;
57093;SDS011;42970;50.996;3.706;2022-08-25T16:46:39;24.92;;;6.80;;
57093;SDS011;42970;50.996;3.706;2022-08-25T16:49:07;19.77;;;7.65;;
57093;SDS011;42970;50.996;3.706;2022-08-25T16:51:34;12.63;;;6.20;;
57093;SDS011;42970;50.996;3.706;2022-08-25T16:54:01;18.23;;;6.22;;